Time;durP1;ratioP1;P1;durP2;ratioP2;P2;SDS_P1;SDS_P2;PMS_P1;PMS_P2;Temp;Humidity;BMP_temperature;BMP_pressure;BME280_temperature;BME280_humidity;BME280_pressure;Samples;Min_cycle;Max_cycle;Signal;HPM_P1;HPM_P2
2022/03/18 00:02:22;;;;;;;3.90;2.60;;;7.90;99.90;;;;;;5031197;28;20406;-73
2022/03/18 00:04:51;;;;;;;6.00;2.80;;;7.90;99.90;;;;;;5031004;28;20982;-73
2022/03/18 00:07:20;;;;;;;4.67;2.50;;;7.80;99.90;;;;;;5031122;28;20251;-73
2022/03/18 00:09:45;;;;;;;4.60;2.13;;;7.90;99.90;;;;;;5031194;28;20406;-73
2022/03/18 00:12:11;;;;;;;2.17;1.90;;;7.90;99.90;;;;;;5031418;28;20505;-73
2022/03/18 00:14:39;;;;;;;2.20;1.67;;;7.80;99.90;;;;;;5030876;28;20279;-73
2022/03/18 00:17:08;;;;;;;2.97;2.77;;;7.80;99.90;;;;;;5031027;28;20414;-73
2022/03/18 00:19:35;;;;;;;3.00;2.20;;;7.80;99.90;;;;;;5031064;28;20460;-73
2022/03/18 00:22:01;;;;;;;2.53;1.97;;;7.80;99.90;;;;;;5031140;28;20406;-73
2022/03/18 00:24:33;;;;;;;7.00;2.10;;;7.80;99.90;;;;;;5031017;28;20454;-73
2022/03/18 00:27:00;;;;;;;3.80;2.23;;;7.80;99.90;;;;;;5034507;28;20886;-73
2022/03/18 00:29:26;;;;;;;4.53;2.63;;;7.80;99.90;;;;;;5034524;28;20409;-73
2022/03/18 00:31:52;;;;;;;4.67;2.00;;;7.80;99.90;;;;;;5034265;28;20486;-73
2022/03/18 00:34:18;;;;;;;5.00;2.30;;;7.80;99.90;;;;;;5034249;28;20406;-73
2022/03/18 00:36:43;;;;;;;4.30;2.13;;;7.80;99.90;;;;;;5034400;28;20406;-73
2022/03/18 00:39:09;;;;;;;1.80;1.50;;;7.80;99.90;;;;;;5034681;28;20634;-73
2022/03/18 00:41:34;;;;;;;11.23;2.00;;;7.80;99.90;;;;;;5034115;28;20176;-73
2022/03/18 00:44:00;;;;;;;2.03;1.83;;;7.80;99.90;;;;;;5034013;28;20192;-73
2022/03/18 00:46:25;;;;;;;9.97;2.13;;;7.80;99.90;;;;;;5033775;28;20203;-73
2022/03/18 00:54:20;;;;;;;3.50;1.97;;;7.70;99.90;;;;;;5034313;28;20450;-74
2022/03/18 00:56:46;;;;;;;3.20;2.43;;;7.70;99.90;;;;;;5033688;28;20881;-73
2022/03/18 00:59:11;;;;;;;5.10;1.90;;;7.70;99.90;;;;;;5034142;28;20172;-74
2022/03/18 01:01:37;;;;;;;2.53;2.03;;;7.70;99.90;;;;;;5033742;28;20422;-73
2022/03/18 01:04:04;;;;;;;3.70;2.30;;;7.70;99.90;;;;;;5033817;28;20193;-74
2022/03/18 01:06:30;;;;;;;2.03;1.90;;;7.70;99.90;;;;;;5033544;28;20418;-73
2022/03/18 01:08:56;;;;;;;2.93;1.67;;;7.70;99.90;;;;;;5015940;28;20399;-73
2022/03/18 01:11:21;;;;;;;2.87;2.67;;;7.70;99.90;;;;;;5033456;28;20402;-73
2022/03/18 01:13:46;;;;;;;2.13;1.60;;;7.70;99.90;;;;;;5033778;28;20163;-73
2022/03/18 01:16:12;;;;;;;3.77;1.50;;;7.70;99.90;;;;;;5033585;28;20702;-74
2022/03/18 01:18:37;;;;;;;2.30;1.63;;;7.70;99.90;;;;;;5033553;28;20168;-72
2022/03/18 01:21:03;;;;;;;3.40;2.10;;;7.70;99.90;;;;;;5033384;28;20625;-72
2022/03/18 01:23:29;;;;;;;1.93;1.43;;;7.70;99.90;;;;;;5033366;28;20171;-73
2022/03/18 01:25:55;;;;;;;4.07;2.30;;;7.70;99.90;;;;;;5033057;28;20250;-73
2022/03/18 01:28:21;;;;;;;2.80;2.40;;;7.70;99.90;;;;;;5033968;28;20172;-73
2022/03/18 01:30:47;;;;;;;2.47;2.00;;;7.70;99.90;;;;;;5033575;28;20413;-73
2022/03/18 01:33:12;;;;;;;3.93;1.90;;;7.70;99.90;;;;;;5033323;28;20168;-73
2022/03/18 01:35:38;;;;;;;3.57;2.73;;;7.70;99.90;;;;;;5033038;28;20198;-73
2022/03/18 01:38:03;;;;;;;5.60;2.87;;;7.70;99.90;;;;;;5032233;28;20191;-73
2022/03/18 01:40:29;;;;;;;2.13;1.93;;;7.70;99.90;;;;;;5032943;28;20593;-73
2022/03/18 01:42:55;;;;;;;3.77;2.40;;;7.70;99.90;;;;;;5030756;28;20180;-73
2022/03/18 01:45:21;;;;;;;2.07;1.87;;;7.60;99.90;;;;;;5052186;23;20256;-66
2022/03/18 01:47:47;;;;;;;2.30;1.70;;;7.60;99.90;;;;;;5032274;28;20258;-67
2022/03/18 01:50:14;;;;;;;1.60;1.50;;;7.60;99.90;;;;;;5032088;28;20402;-66
2022/03/18 01:52:40;;;;;;;2.10;1.87;;;7.60;99.90;;;;;;5032211;28;20786;-66
2022/03/18 01:55:07;;;;;;;3.67;2.40;;;7.60;99.90;;;;;;5034842;28;20915;-66
2022/03/18 01:57:32;;;;;;;2.00;1.50;;;7.60;99.90;;;;;;5051923;28;20413;-66
2022/03/18 01:59:58;;;;;;;2.03;1.60;;;7.70;99.90;;;;;;5036163;28;20884;-66
2022/03/18 02:02:25;;;;;;;5.50;1.70;;;7.60;99.90;;;;;;5032141;28;20415;-66
2022/03/18 02:04:50;;;;;;;3.60;1.67;;;7.60;99.90;;;;;;5044550;28;20206;-66
2022/03/18 02:07:16;;;;;;;2.40;1.47;;;7.60;99.90;;;;;;5051944;28;20471;-66
2022/03/18 02:09:43;;;;;;;2.47;1.87;;;7.60;99.90;;;;;;5033891;28;20568;-65
2022/03/18 02:12:09;;;;;;;7.50;2.57;;;7.60;99.90;;;;;;5051921;28;20487;-66
2022/03/18 02:14:47;;;;;;;7.27;2.20;;;7.60;99.90;;;;;;5051757;28;20405;-65
2022/03/18 02:17:15;;;;;;;2.80;1.70;;;7.60;99.90;;;;;;5034395;28;20898;-65
2022/03/18 02:19:42;;;;;;;3.80;1.90;;;7.60;99.90;;;;;;5031633;28;20470;-65
2022/03/18 02:22:11;;;;;;;2.33;1.57;;;7.60;99.90;;;;;;5031618;28;20497;-65
2022/03/18 02:24:41;;;;;;;2.20;1.60;;;7.60;99.90;;;;;;5031526;28;20787;-65
2022/03/18 02:27:07;;;;;;;2.70;1.80;;;7.60;99.90;;;;;;5031911;28;20426;-66
2022/03/18 02:29:33;;;;;;;3.23;1.60;;;7.60;99.90;;;;;;5031858;28;20433;-66
2022/03/18 02:32:00;;;;;;;2.27;1.73;;;7.60;99.90;;;;;;5029980;28;20418;-66
2022/03/18 02:34:27;;;;;;;1.57;1.43;;;7.60;99.90;;;;;;5031326;28;20417;-66
2022/03/18 02:36:53;;;;;;;2.07;1.83;;;7.60;99.90;;;;;;5031276;28;20438;-65
2022/03/18 02:39:18;;;;;;;3.07;1.70;;;7.50;99.90;;;;;;5031480;28;20504;-65
2022/03/18 02:41:43;;;;;;;1.80;1.50;;;7.50;99.90;;;;;;5032041;28;20176;-65
2022/03/18 02:44:09;;;;;;;3.93;2.23;;;7.50;99.90;;;;;;5051211;28;20695;-65
2022/03/18 02:46:35;;;;;;;6.50;1.57;;;7.50;99.90;;;;;;5051525;28;20567;-67
2022/03/18 02:49:01;;;;;;;1.40;1.30;;;7.60;99.90;;;;;;5051149;28;20218;-66
2022/03/18 02:51:27;;;;;;;2.27;1.23;;;7.50;99.90;;;;;;5050839;28;20550;-66
2022/03/18 02:53:53;;;;;;;2.17;1.40;;;7.50;99.90;;;;;;5051414;28;20409;-66
2022/03/18 02:56:19;;;;;;;2.87;1.63;;;7.50;99.90;;;;;;5050807;28;20460;-66
2022/03/18 02:58:44;;;;;;;1.63;1.53;;;7.50;99.90;;;;;;5048268;28;20413;-66
2022/03/18 03:01:10;;;;;;;3.17;2.87;;;7.50;99.90;;;;;;5051047;28;20167;-65
2022/03/18 03:03:35;;;;;;;2.40;1.27;;;7.50;99.90;;;;;;5051086;28;20774;-65
2022/03/18 03:08:45;;;;;;;1.40;1.30;;;7.50;99.90;;;;;;5046951;28;20190;-66
2022/03/18 03:11:10;;;;;;;8.20;1.70;;;7.50;99.90;;;;;;5031237;28;20406;-66
2022/03/18 03:13:37;;;;;;;2.23;1.63;;;7.50;99.90;;;;;;5031025;28;20462;-66
2022/03/18 03:16:03;;;;;;;1.70;1.60;;;7.50;99.90;;;;;;5031018;28;20250;-66
2022/03/18 03:18:28;;;;;;;1.50;1.30;;;7.50;99.90;;;;;;5031388;28;20410;-66
2022/03/18 03:20:55;;;;;;;2.37;1.93;;;7.50;99.90;;;;;;5031172;28;20605;-66
2022/03/18 03:23:23;;;;;;;1.50;1.40;;;7.50;99.90;;;;;;5031379;28;20565;-67
2022/03/18 03:25:50;;;;;;;2.13;1.40;;;7.50;99.90;;;;;;5031033;28;20498;-65
2022/03/18 03:28:17;;;;;;;2.77;1.50;;;7.50;99.90;;;;;;5030506;28;20436;-66
2022/03/18 03:30:42;;;;;;;3.67;1.70;;;7.50;99.90;;;;;;5030784;28;20489;-66
2022/03/18 03:33:08;;;;;;;4.63;1.20;;;7.50;99.90;;;;;;5030576;28;20479;-66
2022/03/18 03:35:33;;;;;;;2.30;2.10;;;7.50;99.90;;;;;;5030313;28;20187;-65
2022/03/18 03:37:59;;;;;;;1.53;1.43;;;7.50;99.90;;;;;;5030576;28;20255;-65
2022/03/18 03:40:25;;;;;;;1.27;1.00;;;7.50;99.90;;;;;;5030372;28;20629;-66
2022/03/18 03:42:50;;;;;;;2.00;1.10;;;7.50;99.90;;;;;;5030318;28;20223;-66
2022/03/18 03:45:16;;;;;;;5.83;2.13;;;7.50;99.90;;;;;;5030275;28;20342;-65
2022/03/18 03:47:42;;;;;;;1.43;1.13;;;7.50;99.90;;;;;;5030321;28;20168;-66
2022/03/18 03:50:09;;;;;;;2.23;1.30;;;7.50;99.90;;;;;;5030576;28;20173;-65
2022/03/18 03:52:35;;;;;;;3.43;1.60;;;7.40;99.90;;;;;;5030247;28;20449;-66
2022/03/18 03:55:02;;;;;;;1.47;1.37;;;7.40;99.90;;;;;;5030144;28;20408;-66
2022/03/18 03:57:27;;;;;;;6.47;1.87;;;7.40;99.90;;;;;;5030979;28;20926;-66
2022/03/18 03:59:53;;;;;;;2.13;1.33;;;7.40;99.90;;;;;;5031074;28;20409;-66
2022/03/18 04:02:20;;;;;;;2.40;1.57;;;7.40;99.90;;;;;;5034218;28;20633;-66
2022/03/18 04:04:48;;;;;;;6.40;1.53;;;7.50;99.90;;;;;;5033814;28;20187;-67
2022/03/18 04:07:14;;;;;;;1.53;0.83;;;7.50;99.90;;;;;;5034097;28;20402;-66
2022/03/18 04:09:40;;;;;;;4.97;2.33;;;7.40;99.90;;;;;;5034059;28;20919;-66
2022/03/18 04:12:06;;;;;;;2.40;1.37;;;7.40;99.90;;;;;;5033729;28;20403;-66
2022/03/18 04:14:31;;;;;;;2.60;1.17;;;7.40;99.90;;;;;;5033708;28;20171;-66
2022/03/18 04:16:57;;;;;;;2.57;1.33;;;7.40;99.90;;;;;;5033712;28;20902;-66
2022/03/18 04:19:22;;;;;;;1.27;1.03;;;7.40;99.90;;;;;;5033706;28;20174;-66
2022/03/18 04:21:48;;;;;;;1.67;1.43;;;7.30;99.90;;;;;;5033474;28;20175;-66
2022/03/18 04:24:13;;;;;;;4.50;1.73;;;7.20;99.90;;;;;;5033436;28;20192;-68
2022/03/18 04:26:39;;;;;;;5.90;2.00;;;7.20;99.90;;;;;;5033401;28;20238;-66
2022/03/18 04:29:04;;;;;;;19.97;2.73;;;7.20;99.90;;;;;;5033582;28;20163;-65
2022/03/18 04:31:30;;;;;;;3.93;1.60;;;7.20;99.90;;;;;;5033584;28;20195;-66
2022/03/18 04:33:55;;;;;;;2.20;2.00;;;7.20;99.90;;;;;;5033393;28;20596;-66
2022/03/18 04:36:21;;;;;;;1.53;1.23;;;7.10;99.90;;;;;;5033264;28;20215;-66
2022/03/18 04:38:46;;;;;;;1.97;1.80;;;7.10;99.90;;;;;;5033637;28;20264;-67
2022/03/18 04:41:11;;;;;;;1.67;1.40;;;7.10;99.90;;;;;;5033127;28;20184;-66
2022/03/18 04:43:37;;;;;;;2.87;1.20;;;7.10;99.90;;;;;;5033034;28;20607;-66
2022/03/18 04:46:02;;;;;;;4.37;1.70;;;7.10;99.90;;;;;;5032708;28;20203;-66
2022/03/18 04:48:28;;;;;;;6.20;1.30;;;7.00;99.90;;;;;;5033223;28;20168;-66
2022/03/18 04:50:54;;;;;;;1.10;1.00;;;6.90;99.90;;;;;;5033058;28;20182;-66
2022/03/18 04:53:19;;;;;;;4.13;1.20;;;6.90;99.90;;;;;;5032951;28;20398;-66
2022/03/18 04:55:45;;;;;;;1.50;1.40;;;6.80;99.90;;;;;;5032715;28;20196;-68
2022/03/18 04:58:10;;;;;;;5.70;1.77;;;6.70;99.90;;;;;;5032888;28;20164;-66
2022/03/18 05:00:36;;;;;;;0.80;0.80;;;6.70;99.90;;;;;;5032882;28;20172;-66
2022/03/18 05:03:02;;;;;;;2.90;1.00;;;6.60;99.90;;;;;;5032739;28;20237;-66
2022/03/18 05:05:28;;;;;;;3.10;1.40;;;6.60;99.90;;;;;;5032411;28;20983;-66
2022/03/18 05:07:53;;;;;;;2.80;1.60;;;6.50;99.90;;;;;;5032620;28;20438;-65
2022/03/18 05:10:19;;;;;;;1.77;1.00;;;6.50;99.90;;;;;;5032596;28;20542;-66
2022/03/18 05:12:45;;;;;;;4.17;1.50;;;6.40;99.90;;;;;;5032552;28;20171;-66
2022/03/18 05:15:11;;;;;;;1.73;1.20;;;6.30;99.90;;;;;;5032615;28;20520;-66
2022/03/18 05:17:38;;;;;;;7.13;1.47;;;6.30;99.90;;;;;;5032773;28;20407;-66
2022/03/18 05:20:05;;;;;;;3.90;1.53;;;6.20;99.90;;;;;;5032789;28;20172;-66
2022/03/18 05:22:34;;;;;;;2.70;1.20;;;6.20;99.90;;;;;;5032563;28;20790;-66
2022/03/18 05:25:00;;;;;;;3.13;1.40;;;6.20;99.90;;;;;;5032427;28;20882;-67
2022/03/18 05:27:25;;;;;;;2.60;1.77;;;6.10;99.90;;;;;;5032774;28;20489;-67
2022/03/18 05:29:51;;;;;;;2.07;1.97;;;6.10;99.90;;;;;;5032723;28;20167;-67
2022/03/18 05:32:17;;;;;;;5.13;1.27;;;6.10;99.90;;;;;;5032340;28;20168;-67
2022/03/18 05:34:43;;;;;;;3.73;1.37;;;6.10;99.90;;;;;;5032303;28;20198;-67
2022/03/18 05:37:09;;;;;;;2.33;1.03;;;6.10;99.90;;;;;;5032210;28;20487;-67
2022/03/18 05:39:34;;;;;;;1.37;1.20;;;6.20;99.90;;;;;;5032249;28;20402;-66
2022/03/18 05:42:00;;;;;;;3.80;2.67;;;6.20;99.90;;;;;;5032156;28;20186;-66
2022/03/18 05:44:25;;;;;;;2.17;1.53;;;6.20;99.90;;;;;;5031961;28;20214;-66
2022/03/18 05:46:54;;;;;;;10.63;1.57;;;6.20;99.90;;;;;;5032101;28;20203;-67
2022/03/18 05:49:19;;;;;;;2.50;1.20;;;6.20;99.90;;;;;;5032066;28;20586;-67
2022/03/18 05:51:46;;;;;;;2.20;0.90;;;6.20;99.90;;;;;;5032289;28;20410;-67
2022/03/18 05:54:12;;;;;;;1.83;0.97;;;6.20;99.90;;;;;;5032063;28;20225;-66
2022/03/18 05:56:53;;;;;;;3.57;3.33;;;6.20;99.90;;;;;;5031625;28;20430;-66
2022/03/18 05:59:27;;;;;;;2.40;1.30;;;6.20;99.90;;;;;;5031858;28;20383;-66
2022/03/18 06:01:56;;;;;;;2.30;2.10;;;6.10;99.90;;;;;;5031726;28;20405;-67
2022/03/18 06:04:22;;;;;;;1.20;1.10;;;6.10;99.90;;;;;;5031941;28;20450;-66
2022/03/18 06:06:47;;;;;;;3.47;1.23;;;6.20;99.90;;;;;;5031647;28;20418;-66
2022/03/18 06:11:59;;;;;;;7.27;1.50;;;6.10;99.90;;;;;;5032088;28;20214;-67
2022/03/18 06:14:26;;;;;;;2.33;1.10;;;6.10;99.90;;;;;;5031915;28;20465;-67
2022/03/18 06:16:57;;;;;;;1.20;1.10;;;6.00;99.90;;;;;;5031807;28;20833;-66
2022/03/18 06:19:25;;;;;;;3.33;1.07;;;6.00;99.90;;;;;;5031704;28;20517;-66
2022/03/18 06:21:51;;;;;;;1.10;0.80;;;6.10;99.90;;;;;;5031400;28;20406;-67
2022/03/18 06:24:18;;;;;;;2.70;1.20;;;6.40;99.90;;;;;;5030811;28;20496;-66
2022/03/18 06:26:43;;;;;;;2.93;2.67;;;6.50;99.90;;;;;;5032242;28;20453;-67
2022/03/18 06:29:09;;;;;;;1.77;1.20;;;6.60;99.90;;;;;;5031595;28;20402;-67
2022/03/18 06:31:36;;;;;;;3.40;1.50;;;6.80;99.90;;;;;;5031802;28;20267;-66
2022/03/18 06:34:03;;;;;;;5.93;1.47;;;6.90;99.90;;;;;;5032063;28;20171;-66
2022/03/18 06:36:28;;;;;;;2.60;1.30;;;7.30;99.90;;;;;;5031705;28;20419;-66
2022/03/18 06:38:54;;;;;;;1.10;0.70;;;7.00;99.90;;;;;;5032027;28;20806;-68
2022/03/18 06:41:19;;;;;;;1.10;0.93;;;6.60;99.90;;;;;;5032107;28;20710;-67
2022/03/18 06:43:47;;;;;;;3.33;1.33;;;6.90;99.90;;;;;;5032025;28;20305;-65
2022/03/18 06:46:14;;;;;;;2.50;1.07;;;7.00;99.90;;;;;;5031141;28;20203;-66
2022/03/18 06:48:40;;;;;;;1.30;1.20;;;7.00;99.90;;;;;;5031348;28;20402;-66
2022/03/18 06:51:05;;;;;;;1.27;1.17;;;7.30;99.90;;;;;;5031202;28;20398;-66
2022/03/18 06:53:31;;;;;;;1.70;1.20;;;7.30;99.90;;;;;;5030887;28;20406;-67
2022/03/18 06:55:56;;;;;;;10.03;1.43;;;7.60;99.90;;;;;;5031241;28;20192;-67
2022/03/18 06:58:22;;;;;;;1.40;1.10;;;7.40;99.90;;;;;;5030938;28;20564;-66
2022/03/18 07:00:47;;;;;;;2.27;1.40;;;7.60;99.90;;;;;;5030741;28;20183;-65
2022/03/18 07:03:13;;;;;;;3.27;1.03;;;8.00;99.90;;;;;;5031072;28;20231;-67
2022/03/18 07:05:38;;;;;;;2.87;1.60;;;8.00;99.90;;;;;;5030786;28;20390;-68
2022/03/18 07:08:04;;;;;;;2.03;1.10;;;7.90;99.90;;;;;;5030762;28;20173;-68
2022/03/18 07:10:30;;;;;;;1.93;1.67;;;8.20;99.90;;;;;;5030566;28;20177;-66
2022/03/18 07:12:55;;;;;;;1.70;1.40;;;8.00;99.90;;;;;;5031188;28;20190;-67
2022/03/18 07:15:21;;;;;;;5.40;1.10;;;8.30;99.90;;;;;;5030645;28;20244;-67
2022/03/18 07:17:58;;;;;;;3.40;1.13;;;8.60;99.90;;;;;;5030581;28;20184;-68
2022/03/18 07:20:32;;;;;;;7.93;1.47;;;8.60;99.90;;;;;;5030428;28;20191;-67
2022/03/18 07:23:06;;;;;;;1.67;1.00;;;8.80;99.90;;;;;;5030763;28;20398;-67
2022/03/18 07:25:37;;;;;;;1.20;1.10;;;9.00;99.90;;;;;;5030503;28;20458;-67
2022/03/18 07:28:04;;;;;;;2.77;2.10;;;8.90;99.90;;;;;;5029272;28;20856;-68
2022/03/18 07:30:30;;;;;;;5.10;1.50;;;8.60;99.90;;;;;;5030814;28;20414;-68
2022/03/18 07:32:55;;;;;;;5.33;1.70;;;8.60;99.90;;;;;;5030569;28;20417;-68
2022/03/18 07:35:21;;;;;;;3.30;1.70;;;8.40;99.90;;;;;;5032012;28;20282;-67
2022/03/18 07:37:48;;;;;;;4.97;1.57;;;8.70;99.90;;;;;;5034997;28;20251;-67
2022/03/18 07:40:14;;;;;;;3.37;1.00;;;9.20;99.90;;;;;;5034472;28;20179;-67
2022/03/18 07:42:48;;;;;;;1.40;1.17;;;9.40;99.90;;;;;;5034206;28;20413;-68
2022/03/18 07:47:52;;;;;;;1.83;1.33;;;9.90;99.90;;;;;;4993612;28;20462;-71
2022/03/18 07:50:22;;;;;;;2.60;2.40;;;10.20;99.90;;;;;;4996076;28;20408;-70
2022/03/18 07:52:49;;;;;;;2.43;1.30;;;10.40;99.90;;;;;;4995800;28;20400;-69
2022/03/18 07:55:16;;;;;;;6.17;1.57;;;11.00;99.90;;;;;;4996422;28;20405;-69
2022/03/18 07:57:42;;;;;;;2.87;1.03;;;10.70;99.90;;;;;;4996532;28;20937;-69
2022/03/18 08:00:09;;;;;;;2.40;1.27;;;11.00;99.90;;;;;;4996600;28;20396;-70
2022/03/18 08:02:34;;;;;;;7.10;1.40;;;11.10;99.90;;;;;;4996672;28;20584;-69
2022/03/18 08:05:01;;;;;;;5.37;1.67;;;10.80;99.90;;;;;;4995925;28;20478;-68
2022/03/18 08:07:28;;;;;;;5.30;1.60;;;11.70;99.90;;;;;;4996190;28;20187;-69
2022/03/18 08:09:53;;;;;;;3.70;1.10;;;11.70;99.90;;;;;;4996642;28;20475;-69
2022/03/18 08:12:19;;;;;;;1.03;0.90;;;10.60;99.90;;;;;;4994678;28;20412;-69
2022/03/18 08:14:44;;;;;;;3.73;1.80;;;11.00;99.90;;;;;;4995640;28;20178;-69
2022/03/18 08:17:10;;;;;;;2.07;1.30;;;11.20;99.90;;;;;;4992082;28;20665;-69
2022/03/18 08:19:36;;;;;;;2.60;1.20;;;11.90;99.90;;;;;;4991244;28;20171;-68
2022/03/18 08:22:01;;;;;;;3.63;1.37;;;12.50;99.90;;;;;;4994721;28;20181;-69
2022/03/18 08:24:28;;;;;;;2.30;1.00;;;13.00;99.90;;;;;;4975994;28;20200;-69
2022/03/18 08:26:54;;;;;;;2.80;1.33;;;13.10;99.90;;;;;;4976874;28;20425;-69
2022/03/18 08:29:19;;;;;;;3.67;1.80;;;12.90;99.90;;;;;;4976187;28;20789;-68
2022/03/18 08:31:45;;;;;;;1.80;1.53;;;12.20;99.90;;;;;;4975705;28;20499;-68
2022/03/18 08:34:10;;;;;;;7.60;4.40;;;12.70;99.90;;;;;;4976767;28;20640;-68
2022/03/18 08:36:36;;;;;;;3.27;1.10;;;12.60;99.90;;;;;;4975379;28;20642;-68
2022/03/18 08:39:01;;;;;;;6.53;1.70;;;11.80;99.90;;;;;;4975756;28;20323;-68
2022/03/18 08:41:26;;;;;;;3.40;1.10;;;11.60;99.90;;;;;;4975483;28;20173;-69
2022/03/18 08:43:52;;;;;;;3.73;1.70;;;11.90;99.90;;;;;;4975475;28;20180;-69
2022/03/18 08:46:17;;;;;;;4.30;1.30;;;12.50;99.90;;;;;;4974739;28;20284;-71
2022/03/18 08:48:43;;;;;;;4.70;1.97;;;13.80;99.90;;;;;;4975678;28;20170;-69
2022/03/18 08:51:10;;;;;;;2.93;2.03;;;14.60;99.90;;;;;;4976543;28;20217;-70
2022/03/18 08:53:36;;;;;;;0.90;0.80;;;14.10;99.90;;;;;;4975478;28;20226;-70
2022/03/18 08:56:02;;;;;;;1.83;1.13;;;14.10;99.90;;;;;;4975663;28;20945;-71
2022/03/18 08:58:27;;;;;;;3.07;1.40;;;13.40;99.90;;;;;;4986483;28;20425;-70
2022/03/18 09:00:53;;;;;;;4.40;2.50;;;13.60;99.90;;;;;;4995040;28;20277;-71
2022/03/18 09:03:18;;;;;;;5.03;1.40;;;14.10;99.90;;;;;;4994745;28;20201;-70
2022/03/18 09:05:44;;;;;;;3.10;1.30;;;14.30;99.90;;;;;;4994389;28;20201;-70
2022/03/18 09:08:09;;;;;;;3.33;1.53;;;13.70;99.90;;;;;;4994856;28;20569;-70
2022/03/18 09:10:35;;;;;;;3.83;1.30;;;12.90;99.90;;;;;;4994788;28;20184;-70
2022/03/18 09:13:01;;;;;;;3.73;1.10;;;13.20;99.90;;;;;;4995001;28;20245;-69
2022/03/18 09:15:29;;;;;;;3.17;1.37;;;13.00;99.90;;;;;;4995378;28;20263;-70
2022/03/18 09:17:55;;;;;;;5.03;1.20;;;12.50;99.90;;;;;;4997118;28;20485;-70
2022/03/18 09:20:21;;;;;;;2.43;1.10;;;13.00;99.90;;;;;;4997811;28;20448;-70
2022/03/18 09:22:46;;;;;;;2.30;1.60;;;12.60;99.90;;;;;;4997093;28;20677;-70
2022/03/18 09:25:13;;;;;;;1.90;1.03;;;13.00;99.90;;;;;;4995776;28;20486;-70
2022/03/18 09:27:38;;;;;;;3.10;1.30;;;12.80;99.90;;;;;;5004671;28;20168;-70
2022/03/18 09:30:05;;;;;;;2.40;1.30;;;12.60;99.90;;;;;;5001540;28;20415;-70
2022/03/18 09:32:30;;;;;;;3.47;1.60;;;13.10;99.90;;;;;;4994224;28;20227;-70
2022/03/18 09:34:56;;;;;;;5.67;2.13;;;13.60;99.90;;;;;;4994236;28;20412;-69
2022/03/18 09:37:22;;;;;;;2.40;1.83;;;13.00;99.90;;;;;;4994388;28;20195;-69
2022/03/18 09:39:47;;;;;;;3.03;1.67;;;12.70;99.90;;;;;;4994380;28;20420;-70
2022/03/18 09:42:13;;;;;;;2.50;1.87;;;12.20;99.90;;;;;;4994562;28;20647;-70
2022/03/18 09:44:39;;;;;;;4.00;2.00;;;13.00;99.90;;;;;;4995402;28;20237;-70
2022/03/18 09:47:06;;;;;;;9.70;2.70;;;12.80;99.90;;;;;;4995108;28;20217;-71
2022/03/18 09:49:33;;;;;;;3.70;1.90;;;12.50;99.90;;;;;;4996797;28;20901;-71
2022/03/18 09:51:58;;;;;;;2.20;1.77;;;12.60;99.90;;;;;;4997350;28;20445;-69
2022/03/18 09:54:24;;;;;;;3.30;2.00;;;13.10;99.90;;;;;;4983764;28;20449;-69
2022/03/18 09:56:50;;;;;;;6.50;2.37;;;13.50;99.90;;;;;;4994722;28;20193;-69
2022/03/18 09:59:16;;;;;;;4.33;2.47;;;13.70;99.90;;;;;;4995779;28;20407;-69
2022/03/18 10:01:42;;;;;;;4.37;2.47;;;13.80;99.90;;;;;;4996566;28;20335;-71
2022/03/18 10:04:12;;;;;;;5.07;2.57;;;13.30;99.90;;;;;;4996190;28;20188;-70
2022/03/18 10:06:42;;;;;;;3.60;2.43;;;13.00;99.90;;;;;;4996193;28;20262;-70
2022/03/18 10:09:13;;;;;;;3.57;2.17;;;12.70;99.90;;;;;;4995253;28;20409;-70
2022/03/18 10:11:43;;;;;;;2.97;2.33;;;12.70;99.90;;;;;;4994699;28;20400;-69
2022/03/18 10:14:14;;;;;;;8.60;2.40;;;12.10;99.90;;;;;;4993549;28;20404;-70
2022/03/18 10:16:48;;;;;;;2.83;2.53;;;12.50;99.90;;;;;;4993236;28;20431;-70
2022/03/18 10:19:22;;;;;;;9.87;2.70;;;12.10;99.90;;;;;;4993634;28;20411;-69
2022/03/18 10:21:52;;;;;;;3.83;1.93;;;12.60;99.90;;;;;;4993412;28;20517;-69
2022/03/18 10:24:19;;;;;;;4.37;2.30;;;12.20;99.90;;;;;;4993380;28;20397;-69
2022/03/18 10:26:44;;;;;;;3.33;2.33;;;12.00;99.90;;;;;;4993190;28;20435;-70
2022/03/18 10:29:11;;;;;;;2.80;1.93;;;12.10;99.90;;;;;;4993192;28;20408;-69
2022/03/18 10:31:39;;;;;;;4.30;2.53;;;12.10;99.90;;;;;;4993613;28;20265;-69
2022/03/18 10:37:08;;;;;;;3.27;1.97;;;11.90;99.90;;;;;;4993400;28;20813;-70
2022/03/18 10:39:39;;;;;;;4.33;2.10;;;11.30;99.90;;;;;;4993223;28;20404;-70
2022/03/18 10:42:10;;;;;;;3.63;2.23;;;11.40;99.90;;;;;;4993365;28;21201;-71
2022/03/18 10:44:53;;;;;;;5.03;1.77;;;11.40;99.90;;;;;;4993180;28;20813;-71
2022/03/18 10:47:41;;;;;;;3.40;2.13;;;11.30;99.90;;;;;;4993325;28;20444;-69
2022/03/18 10:50:19;;;;;;;4.17;2.10;;;11.50;99.90;;;;;;4993176;28;20806;-72
2022/03/18 10:52:47;;;;;;;3.53;1.80;;;11.50;99.90;;;;;;4993076;28;20462;-71
2022/03/18 10:55:22;;;;;;;4.70;2.43;;;11.60;99.90;;;;;;4992919;28;20416;-70
2022/03/18 10:57:52;;;;;;;2.70;1.50;;;11.60;99.90;;;;;;4993043;28;20419;-70
2022/03/18 11:00:19;;;;;;;3.77;1.60;;;11.70;99.90;;;;;;4992753;28;20470;-70
2022/03/18 11:02:48;;;;;;;3.20;2.23;;;11.80;99.90;;;;;;4992785;28;20412;-70
2022/03/18 11:05:14;;;;;;;5.63;1.40;;;11.80;99.90;;;;;;4992950;28;20962;-70
2022/03/18 11:07:43;;;;;;;5.63;2.63;;;11.60;99.90;;;;;;4992948;28;20428;-69
2022/03/18 11:12:56;;;;;;;3.90;1.83;;;11.70;99.90;;;;;;4992991;28;20407;-70
2022/03/18 11:15:25;;;;;;;5.67;1.83;;;11.60;99.90;;;;;;4992583;28;20423;-69
2022/03/18 11:17:51;;;;;;;4.17;2.53;;;11.70;99.90;;;;;;4992810;28;20412;-72
2022/03/18 11:20:20;;;;;;;2.67;2.07;;;11.80;99.90;;;;;;4993168;28;20819;-71
2022/03/18 11:22:47;;;;;;;3.00;2.10;;;11.90;99.90;;;;;;4992872;28;20412;-70
2022/03/18 11:25:15;;;;;;;1.83;1.50;;;11.90;99.90;;;;;;4992360;28;20466;-70
2022/03/18 11:27:44;;;;;;;4.80;2.23;;;11.90;99.90;;;;;;4992831;28;20913;-70
2022/03/18 11:30:35;;;;;;;2.07;1.90;;;11.90;99.90;;;;;;4992884;28;20412;-70
2022/03/18 11:33:17;;;;;;;3.33;1.60;;;11.70;99.90;;;;;;4992811;28;20407;-72
2022/03/18 11:35:51;;;;;;;5.70;2.83;;;11.90;99.90;;;;;;4992452;28;20424;-69
2022/03/18 11:38:23;;;;;;;6.50;1.97;;;11.80;99.90;;;;;;4992287;28;20416;-69
2022/03/18 11:41:01;;;;;;;5.60;2.17;;;11.80;99.90;;;;;;4992402;28;20415;-70
2022/03/18 11:43:34;;;;;;;3.20;1.57;;;11.70;99.90;;;;;;4992089;28;20490;-70
2022/03/18 11:46:19;;;;;;;3.10;1.73;;;11.80;99.90;;;;;;4991769;28;20555;-70
2022/03/18 11:48:55;;;;;;;2.30;2.07;;;11.70;99.90;;;;;;4992339;28;20487;-69
2022/03/18 11:51:42;;;;;;;2.93;1.70;;;11.70;99.90;;;;;;4992253;28;20486;-70
2022/03/18 11:54:10;;;;;;;6.50;1.50;;;12.00;99.90;;;;;;4993002;28;20419;-69
2022/03/18 11:56:50;;;;;;;4.63;1.83;;;12.10;99.90;;;;;;4992655;28;20792;-70
2022/03/18 11:59:28;;;;;;;3.57;1.67;;;12.20;99.90;;;;;;4992591;28;20400;-69
2022/03/18 12:02:00;;;;;;;9.77;2.30;;;12.40;99.90;;;;;;4992206;28;20791;-70
2022/03/18 12:04:39;;;;;;;3.27;1.50;;;12.40;99.90;;;;;;4991978;28;20452;-69
2022/03/18 12:07:12;;;;;;;3.50;2.07;;;12.30;99.90;;;;;;4992306;28;20432;-70
2022/03/18 12:09:56;;;;;;;3.70;1.90;;;12.40;99.90;;;;;;4992143;28;20404;-70
2022/03/18 12:12:23;;;;;;;1.93;1.60;;;12.30;99.70;;;;;;4991812;28;20764;-69
2022/03/18 12:14:51;;;;;;;2.70;1.30;;;12.40;99.50;;;;;;4991735;28;20396;-70
2022/03/18 12:17:16;;;;;;;2.00;1.43;;;12.50;99.00;;;;;;4991753;28;20428;-70
2022/03/18 12:19:57;;;;;;;1.63;1.10;;;12.40;98.20;;;;;;4991818;28;20407;-70
2022/03/18 12:22:24;;;;;;;3.47;1.40;;;12.50;98.30;;;;;;4994861;28;20227;-70
2022/03/18 12:24:54;;;;;;;2.07;1.37;;;12.50;97.90;;;;;;4995143;28;21033;-72
2022/03/18 12:27:29;;;;;;;2.17;1.73;;;12.70;97.80;;;;;;4995462;28;20428;-70
2022/03/18 12:29:59;;;;;;;2.70;1.30;;;12.70;97.60;;;;;;4993931;28;20407;-69
2022/03/18 12:32:25;;;;;;;7.50;2.40;;;12.80;97.30;;;;;;4995313;28;20404;-70
2022/03/18 12:34:52;;;;;;;2.30;1.30;;;12.60;97.10;;;;;;4996217;28;20405;-69
2022/03/18 12:37:22;;;;;;;2.30;0.97;;;12.50;97.30;;;;;;4997005;28;20775;-71
2022/03/18 12:40:00;;;;;;;6.40;1.80;;;12.70;97.30;;;;;;4996000;28;20416;-70
2022/03/18 12:42:26;;;;;;;3.70;1.40;;;12.80;96.80;;;;;;4996245;28;20400;-70
2022/03/18 12:44:57;;;;;;;4.50;1.37;;;12.90;96.40;;;;;;4996709;28;20459;-70
2022/03/18 12:47:25;;;;;;;1.77;1.00;;;12.90;96.80;;;;;;4996273;28;20264;-69
2022/03/18 12:49:51;;;;;;;1.47;1.10;;;13.00;96.50;;;;;;4995539;28;20408;-70
2022/03/18 12:52:19;;;;;;;6.10;1.27;;;13.00;96.10;;;;;;4994877;28;20454;-70
2022/03/18 12:55:08;;;;;;;2.33;1.70;;;12.90;96.10;;;;;;4994714;28;20587;-69
2022/03/18 12:57:37;;;;;;;1.77;1.10;;;13.00;95.80;;;;;;4995011;28;20424;-70
2022/03/18 13:00:04;;;;;;;3.63;1.27;;;13.10;95.60;;;;;;4994788;28;20419;-68
2022/03/18 13:02:30;;;;;;;4.03;1.20;;;13.10;95.40;;;;;;4994501;28;20801;-69
2022/03/18 13:04:59;;;;;;;1.80;1.20;;;13.00;94.80;;;;;;4994366;28;20440;-70
2022/03/18 13:07:26;;;;;;;2.10;1.10;;;12.90;94.70;;;;;;4994433;28;20185;-69
2022/03/18 13:09:52;;;;;;;0.90;0.70;;;13.10;94.40;;;;;;4994566;28;20911;-70
2022/03/18 13:12:34;;;;;;;2.70;0.90;;;13.20;93.70;;;;;;4994665;28;20455;-70
2022/03/18 13:15:15;;;;;;;2.13;1.00;;;13.30;92.90;;;;;;4994602;28;20181;-69